createdAt,value
2022-12-08T00:01:06.685Z,17.40
2022-12-08T00:03:33.739Z,15.63
2022-12-08T00:06:21.577Z,14.45
2022-12-08T00:09:07.116Z,15.07
2022-12-08T00:11:34.076Z,16.70
2022-12-08T00:14:01.013Z,17.50
2022-12-08T00:16:27.530Z,14.73
2022-12-08T00:18:54.214Z,17.73
2022-12-08T00:21:20.681Z,16.15
2022-12-08T00:23:47.138Z,16.00
2022-12-08T00:26:13.629Z,14.93
2022-12-08T00:28:40.118Z,15.82
2022-12-08T00:31:11.778Z,16.17
2022-12-08T00:33:38.372Z,17.60
2022-12-08T00:36:09.349Z,15.25
2022-12-08T00:38:36.388Z,16.02
2022-12-08T00:41:04.090Z,20.75
2022-12-08T00:43:30.565Z,14.80
2022-12-08T00:45:57.149Z,15.88
2022-12-08T00:48:23.687Z,15.45
2022-12-08T00:50:50.114Z,13.90
2022-12-08T00:53:16.588Z,14.80
2022-12-08T00:55:43.648Z,18.08
2022-12-08T00:58:10.106Z,17.60
2022-12-08T01:00:36.546Z,17.73
2022-12-08T01:03:03.132Z,18.92
2022-12-08T01:05:29.685Z,15.82
2022-12-08T01:07:56.176Z,18.80
2022-12-08T01:10:22.834Z,16.65
2022-12-08T01:12:49.324Z,19.40
2022-12-08T01:15:15.797Z,18.42
2022-12-08T01:17:42.313Z,20.45
2022-12-08T01:20:09.270Z,19.63
2022-12-08T01:22:38.376Z,18.17
2022-12-08T01:25:05.205Z,18.67
2022-12-08T01:27:31.722Z,17.63
2022-12-08T01:29:58.171Z,20.85
2022-12-08T01:32:24.632Z,20.17
2022-12-08T01:34:51.058Z,21.77
2022-12-08T01:37:17.730Z,20.88
2022-12-08T01:39:44.328Z,20.17
2022-12-08T01:42:23.433Z,18.75
2022-12-08T01:44:55.045Z,20.88
2022-12-08T01:47:24.245Z,22.58
2022-12-08T01:49:51.024Z,20.73
2022-12-08T01:52:37.337Z,23.60
2022-12-08T01:55:39.461Z,20.38
2022-12-08T01:58:13.700Z,18.13
2022-12-08T02:00:40.169Z,20.60
2022-12-08T02:03:13.285Z,20.33
2022-12-08T02:05:40.442Z,21.15
2022-12-08T02:08:10.945Z,20.70
2022-12-08T02:10:41.445Z,25.58
2022-12-08T02:13:12.354Z,20.80
2022-12-08T02:15:42.906Z,19.60
2022-12-08T02:18:57.706Z,25.70
2022-12-08T02:21:55.550Z,19.42
2022-12-08T02:24:39.642Z,23.38
2022-12-08T02:27:27.935Z,19.85
2022-12-08T02:30:13.212Z,20.17
2022-12-08T02:33:05.809Z,22.42
2022-12-08T02:35:39.892Z,19.15
2022-12-08T02:38:32.214Z,19.05
2022-12-08T02:41:35.746Z,16.02
2022-12-08T02:44:33.154Z,20.70
2022-12-08T02:47:06.919Z,18.23
2022-12-08T02:49:35.134Z,19.83
2022-12-08T02:52:05.539Z,20.33
2022-12-08T02:54:33.296Z,20.27
2022-12-08T02:57:32.900Z,20.65
2022-12-08T03:00:09.131Z,20.00
2022-12-08T03:03:25.066Z,21.27
2022-12-08T03:06:09.852Z,20.23
2022-12-08T03:08:46.330Z,19.88
2022-12-08T03:11:22.590Z,18.35
2022-12-08T03:13:52.912Z,22.05
2022-12-08T03:16:24.428Z,18.55
2022-12-08T03:19:06.055Z,18.50
2022-12-08T03:21:35.351Z,18.63
2022-12-08T03:24:06.604Z,16.05
2022-12-08T03:26:46.459Z,18.38
2022-12-08T03:29:13.755Z,19.70
2022-12-08T03:31:48.686Z,23.33
2022-12-08T03:34:16.992Z,18.05
2022-12-08T03:36:44.774Z,17.50
2022-12-08T03:39:11.402Z,18.48
2022-12-08T03:41:37.892Z,20.23
2022-12-08T03:44:04.553Z,20.00
2022-12-08T03:48:57.370Z,18.83
2022-12-08T03:51:24.637Z,23.23
2022-12-08T03:53:51.393Z,18.45
2022-12-08T03:56:28.589Z,19.60
2022-12-08T03:58:55.824Z,17.15
2022-12-08T04:01:23.183Z,18.38
2022-12-08T04:03:49.895Z,18.92
2022-12-08T04:06:17.044Z,17.42
2022-12-08T04:08:43.893Z,18.02
2022-12-08T04:11:11.485Z,17.92
2022-12-08T04:13:39.534Z,17.60
2022-12-08T04:16:07.303Z,18.20
2022-12-08T04:18:35.198Z,17.73
2022-12-08T04:21:01.984Z,19.75
2022-12-08T04:23:28.493Z,18.30
2022-12-08T04:25:54.942Z,16.52
2022-12-08T04:28:21.845Z,16.95
2022-12-08T04:30:49.278Z,20.75
2022-12-08T04:33:16.249Z,18.13
2022-12-08T04:35:42.957Z,19.52
2022-12-08T04:38:09.438Z,18.35
2022-12-08T04:40:35.874Z,17.05
2022-12-08T04:43:02.347Z,18.80
2022-12-08T04:45:28.815Z,20.25
2022-12-08T04:47:55.540Z,18.77
2022-12-08T04:50:22.201Z,18.65
2022-12-08T04:52:48.700Z,20.50
2022-12-08T04:55:15.213Z,19.40
2022-12-08T04:57:41.664Z,19.45
2022-12-08T05:00:08.795Z,18.38
2022-12-08T05:02:35.512Z,19.30
2022-12-08T05:05:02.067Z,18.52
2022-12-08T05:07:28.519Z,19.00
2022-12-08T05:09:55.048Z,16.08
2022-12-08T05:12:21.675Z,19.15
2022-12-08T05:14:48.436Z,19.05
2022-12-08T05:17:15.929Z,19.33
2022-12-08T05:19:42.622Z,13.85
2022-12-08T05:22:09.325Z,16.20
2022-12-08T05:24:35.856Z,17.77
2022-12-08T05:27:02.530Z,18.02
2022-12-08T05:29:28.946Z,16.85
2022-12-08T05:31:55.581Z,18.98
2022-12-08T05:34:22.162Z,15.00
2022-12-08T05:36:48.643Z,17.23
2022-12-08T05:39:15.889Z,18.65
2022-12-08T05:41:42.380Z,17.02
2022-12-08T05:44:09.107Z,15.63
2022-12-08T05:46:36.460Z,18.60
2022-12-08T05:49:04.171Z,16.15
2022-12-08T05:51:30.785Z,19.20
2022-12-08T05:53:57.999Z,18.95
2022-12-08T05:56:24.741Z,18.65
2022-12-08T05:58:51.283Z,18.30
2022-12-08T06:01:22.781Z,19.10
2022-12-08T06:03:49.312Z,15.13
2022-12-08T06:06:15.933Z,16.17
2022-12-08T06:08:42.388Z,16.10
2022-12-08T06:11:09.447Z,15.90
2022-12-08T06:13:36.029Z,15.23
2022-12-08T06:16:06.893Z,20.33
2022-12-08T06:18:33.445Z,12.98
2022-12-08T06:21:08.115Z,14.55
2022-12-08T06:23:35.206Z,13.43
2022-12-08T06:26:07.777Z,19.30
2022-12-08T06:28:35.546Z,14.25
2022-12-08T06:31:09.820Z,14.48
2022-12-08T06:33:36.861Z,14.65
2022-12-08T06:36:04.650Z,13.60
2022-12-08T06:38:31.145Z,16.10
2022-12-08T06:40:59.304Z,17.75
2022-12-08T06:43:26.467Z,16.63
2022-12-08T06:45:53.444Z,13.45
2022-12-08T06:48:20.165Z,20.02
2022-12-08T06:50:46.669Z,18.55
2022-12-08T06:53:14.882Z,21.23
2022-12-08T06:56:00.233Z,22.73
2022-12-08T06:58:26.803Z,19.73
2022-12-08T07:00:53.723Z,19.02
2022-12-08T07:03:20.587Z,18.08
2022-12-08T07:05:47.265Z,20.98
2022-12-08T07:08:13.938Z,20.95
2022-12-08T07:10:40.661Z,20.90
2022-12-08T07:13:07.198Z,21.85
2022-12-08T07:15:33.664Z,21.40
2022-12-08T07:18:00.618Z,28.95
2022-12-08T07:20:27.639Z,25.17
2022-12-08T07:22:54.651Z,26.45
2022-12-08T07:25:21.187Z,20.92
2022-12-08T07:27:48.095Z,21.50
2022-12-08T07:30:15.101Z,25.10
2022-12-08T07:32:41.612Z,19.98
2022-12-08T07:35:10.804Z,24.80
2022-12-08T07:37:38.232Z,20.73
2022-12-08T07:40:07.095Z,21.63
2022-12-08T07:42:34.122Z,24.40
2022-12-08T07:45:00.851Z,22.23
2022-12-08T07:47:27.375Z,24.15
2022-12-08T07:49:53.900Z,21.55
2022-12-08T07:52:20.425Z,23.80
2022-12-08T07:54:47.380Z,25.83
2022-12-08T07:57:13.979Z,24.77
2022-12-08T07:59:40.489Z,26.73
2022-12-08T08:02:24.268Z,19.83
2022-12-08T08:04:51.839Z,23.05
2022-12-08T08:07:18.313Z,23.90
2022-12-08T08:09:45.725Z,28.60
2022-12-08T08:12:30.745Z,19.85
2022-12-08T08:14:58.347Z,20.90
2022-12-08T08:17:24.976Z,20.98
2022-12-08T08:19:51.558Z,18.02
2022-12-08T08:22:18.000Z,20.83
2022-12-08T08:24:45.352Z,17.15
2022-12-08T08:27:12.545Z,20.63
2022-12-08T08:29:39.017Z,19.90
2022-12-08T08:32:05.881Z,22.73
2022-12-08T08:34:32.418Z,21.65
2022-12-08T08:36:58.929Z,19.60
2022-12-08T08:39:26.508Z,20.55
2022-12-08T08:41:53.030Z,29.33
2022-12-08T08:44:19.526Z,23.70
2022-12-08T08:46:46.049Z,26.95
2022-12-08T08:49:12.842Z,19.42
2022-12-08T08:51:39.389Z,22.20
2022-12-08T08:54:05.863Z,21.35
2022-12-08T08:56:32.706Z,22.25
2022-12-08T08:58:59.237Z,21.27
2022-12-08T09:01:28.159Z,26.85
2022-12-08T09:03:57.564Z,20.20
2022-12-08T09:06:25.349Z,25.77
2022-12-08T09:08:52.103Z,20.10
2022-12-08T09:11:18.744Z,22.88
2022-12-08T09:13:48.345Z,22.55
2022-12-08T09:16:15.497Z,19.73
2022-12-08T09:18:42.108Z,24.15
2022-12-08T09:21:13.179Z,20.27
2022-12-08T09:23:40.017Z,26.02
2022-12-08T09:26:06.971Z,23.88
2022-12-08T09:28:33.712Z,23.75
2022-12-08T09:31:00.870Z,24.45
2022-12-08T09:33:27.655Z,25.70
2022-12-08T09:35:54.165Z,23.77
2022-12-08T09:38:20.619Z,22.98
2022-12-08T09:40:53.100Z,25.77
2022-12-08T09:43:38.569Z,20.83
2022-12-08T09:46:09.459Z,26.30
2022-12-08T09:48:41.510Z,29.60
2022-12-08T09:51:09.294Z,26.10
2022-12-08T09:53:56.325Z,29.17
2022-12-08T09:56:26.448Z,34.85
2022-12-08T09:58:55.375Z,28.05
2022-12-08T10:01:23.907Z,28.17
2022-12-08T10:03:50.652Z,24.70
2022-12-08T10:06:41.276Z,27.50
2022-12-08T10:09:22.687Z,26.40
2022-12-08T10:11:57.527Z,23.50
2022-12-08T10:15:02.348Z,25.70
2022-12-08T10:17:34.603Z,22.73
2022-12-08T10:20:21.407Z,25.95
2022-12-08T10:22:58.484Z,21.63
2022-12-08T10:25:33.176Z,23.77
2022-12-08T10:27:59.614Z,23.85
2022-12-08T10:30:26.255Z,19.85
2022-12-08T10:32:54.626Z,20.60
2022-12-08T10:35:22.870Z,24.10
2022-12-08T10:38:03.985Z,21.23
2022-12-08T10:40:42.120Z,26.42
2022-12-08T10:43:22.003Z,21.45
2022-12-08T10:45:48.991Z,21.80
2022-12-08T10:48:22.628Z,28.70
2022-12-08T10:50:59.901Z,25.25
2022-12-08T10:53:33.763Z,24.02
2022-12-08T10:56:03.071Z,26.65
2022-12-08T10:58:48.437Z,20.42
2022-12-08T11:01:18.533Z,26.15
2022-12-08T11:03:47.736Z,20.88
2022-12-08T11:06:19.977Z,22.20
2022-12-08T11:08:54.143Z,21.27
2022-12-08T11:11:27.683Z,22.25
2022-12-08T11:13:55.947Z,21.92
2022-12-08T11:16:23.518Z,24.65
2022-12-08T11:18:57.098Z,21.67
2022-12-08T11:26:30.126Z,17.65
2022-12-08T11:28:57.152Z,19.30
2022-12-08T11:31:41.253Z,22.65
2022-12-08T11:34:15.586Z,23.27
2022-12-08T11:36:42.173Z,22.60
2022-12-08T11:39:12.492Z,25.23
2022-12-08T11:41:44.190Z,22.25
2022-12-08T11:45:12.096Z,22.70
2022-12-08T11:47:52.612Z,22.08
2022-12-08T11:50:28.373Z,22.58
2022-12-08T11:52:56.995Z,24.30
2022-12-08T11:55:40.704Z,28.83
2022-12-08T11:58:12.070Z,21.35
2022-12-08T12:00:38.492Z,21.63
2022-12-08T12:03:19.038Z,21.52
2022-12-08T12:09:34.155Z,18.65
2022-12-08T12:12:40.042Z,21.35
2022-12-08T12:15:44.918Z,21.73
2022-12-08T12:18:31.556Z,20.17
2022-12-08T12:21:22.728Z,20.75
2022-12-08T12:23:56.848Z,22.35
2022-12-08T12:26:29.527Z,20.58
2022-12-08T12:29:06.616Z,25.15
2022-12-08T12:31:41.578Z,20.02
2022-12-08T12:34:22.527Z,22.27
2022-12-08T12:36:50.789Z,23.23
2022-12-08T12:39:21.634Z,23.10
2022-12-08T12:41:57.478Z,21.10
2022-12-08T12:44:45.859Z,26.05
2022-12-08T12:47:14.721Z,21.52
2022-12-08T12:49:43.567Z,26.83
2022-12-08T12:52:09.937Z,27.50
2022-12-08T12:54:36.457Z,24.05
2022-12-08T12:57:08.970Z,30.38
2022-12-08T12:59:55.294Z,22.70
2022-12-08T13:02:25.107Z,23.42
2022-12-08T13:05:00.656Z,29.38
2022-12-08T13:07:34.251Z,27.13
2022-12-08T13:10:18.062Z,28.58
2022-12-08T13:15:20.302Z,28.15
2022-12-08T13:17:49.033Z,26.55
2022-12-08T13:20:24.433Z,24.27
2022-12-08T13:22:53.624Z,32.70
2022-12-08T13:25:38.877Z,26.52
2022-12-08T13:28:27.381Z,30.17
2022-12-08T13:31:03.890Z,28.13
2022-12-08T13:33:31.767Z,32.15
2022-12-08T13:36:07.047Z,32.20
2022-12-08T13:38:36.773Z,32.00
2022-12-08T13:41:08.040Z,33.05
2022-12-08T13:44:10.209Z,34.25
2022-12-08T13:47:25.106Z,34.33
2022-12-08T13:56:59.412Z,38.17
2022-12-08T13:58:36.340Z,37.83
2022-12-08T14:01:02.843Z,35.65
2022-12-08T14:03:29.548Z,33.65
2022-12-08T14:06:12.322Z,37.40
2022-12-08T14:11:50.213Z,36.53
2022-12-08T14:14:46.035Z,33.83
2022-12-08T14:17:15.173Z,36.28
2022-12-08T14:19:53.687Z,31.67
2022-12-08T14:22:20.115Z,32.95
2022-12-08T14:24:51.225Z,33.33
2022-12-08T14:27:21.459Z,35.67
2022-12-08T14:30:00.111Z,35.47
2022-12-08T14:32:44.473Z,39.30
2022-12-08T14:35:10.875Z,37.65
2022-12-08T14:37:49.986Z,36.83
2022-12-08T14:40:36.174Z,34.60
2022-12-08T14:43:13.560Z,33.58
2022-12-08T14:45:43.780Z,40.35
2022-12-08T14:48:39.191Z,36.88
2022-12-08T14:51:14.548Z,36.85
2022-12-08T14:53:44.969Z,39.92
2022-12-08T14:56:20.569Z,39.65
2022-12-08T14:58:49.900Z,40.70
2022-12-08T15:01:23.368Z,35.03
2022-12-08T15:06:21.001Z,36.25
2022-12-08T15:08:58.816Z,39.83
2022-12-08T15:11:34.600Z,39.15
2022-12-08T15:14:01.753Z,37.55
2022-12-08T15:16:30.429Z,39.75
2022-12-08T15:19:16.881Z,36.20
2022-12-08T15:21:44.795Z,39.92
2022-12-08T15:24:13.258Z,40.20
2022-12-08T15:26:43.971Z,32.05
2022-12-08T15:29:13.646Z,34.38
2022-12-08T15:31:40.218Z,40.17
2022-12-08T15:34:06.794Z,40.80
2022-12-08T15:36:33.298Z,44.05
2022-12-08T15:38:59.936Z,40.47
2022-12-08T15:41:26.412Z,45.17
2022-12-08T15:43:52.882Z,33.05
2022-12-08T15:46:19.328Z,36.72
2022-12-08T15:48:45.842Z,38.55
2022-12-08T15:51:12.261Z,37.88
2022-12-08T15:53:38.737Z,36.50
2022-12-08T15:58:55.622Z,42.30
2022-12-08T16:01:23.365Z,36.33
2022-12-08T16:09:39.035Z,36.33
2022-12-08T16:13:54.806Z,38.45
2022-12-08T16:16:01.125Z,39.47
2022-12-08T16:18:37.149Z,37.95
2022-12-08T16:21:12.382Z,36.92
2022-12-08T16:23:44.955Z,35.00
2022-12-08T16:26:28.396Z,40.63
2022-12-08T16:29:02.171Z,46.13
2022-12-08T16:31:28.965Z,52.50
2022-12-08T16:33:55.601Z,51.30
2022-12-08T16:36:22.027Z,51.10
2022-12-08T16:38:48.480Z,42.40
2022-12-08T16:41:35.230Z,45.25
2022-12-08T16:44:03.382Z,43.88
2022-12-08T16:46:29.926Z,43.13
2022-12-08T16:48:58.829Z,46.42
2022-12-08T16:51:27.372Z,43.72
2022-12-08T16:53:55.130Z,50.67
2022-12-08T16:56:26.244Z,46.63
2022-12-08T16:58:56.996Z,48.63
2022-12-08T17:01:24.813Z,47.33
2022-12-08T17:04:07.470Z,48.70
2022-12-08T17:06:37.864Z,52.80
2022-12-08T17:09:04.505Z,52.38
2022-12-08T17:11:36.186Z,48.03
2022-12-08T17:14:04.102Z,47.35
2022-12-08T17:16:30.585Z,47.78
2022-12-08T17:18:58.245Z,50.17
2022-12-08T17:21:24.753Z,48.63
2022-12-08T17:23:51.241Z,49.08
2022-12-08T17:26:17.780Z,44.67
2022-12-08T17:29:00.078Z,45.13
2022-12-08T17:31:29.976Z,45.67
2022-12-08T17:34:02.248Z,45.88
2022-12-08T17:36:29.018Z,53.20
2022-12-08T17:38:56.746Z,46.72
2022-12-08T17:41:23.216Z,51.40
2022-12-08T17:43:49.699Z,47.55
2022-12-08T17:46:20.618Z,46.78
2022-12-08T17:48:47.467Z,44.60
2022-12-08T17:51:15.129Z,55.80
2022-12-08T17:53:41.719Z,44.95
2022-12-08T17:56:21.154Z,54.50
2022-12-08T17:58:52.847Z,45.58
2022-12-08T18:03:48.196Z,45.65
2022-12-08T18:06:14.738Z,51.00
2022-12-08T18:08:41.151Z,46.95
2022-12-08T18:11:16.599Z,41.53
2022-12-08T18:13:43.351Z,49.30
2022-12-08T18:16:10.289Z,41.17
2022-12-08T18:18:36.807Z,43.83
2022-12-08T18:21:04.056Z,45.97
2022-12-08T18:23:30.564Z,40.05
2022-12-08T18:25:57.084Z,43.08
2022-12-08T18:28:24.067Z,42.00
2022-12-08T18:30:50.778Z,44.72
2022-12-08T18:33:17.371Z,43.15
2022-12-08T18:35:43.849Z,42.47
2022-12-08T18:38:10.289Z,45.35
2022-12-08T18:40:36.819Z,36.78
2022-12-08T18:43:03.439Z,40.58
2022-12-08T18:45:29.892Z,37.97
2022-12-08T18:47:56.451Z,41.20
2022-12-08T18:50:23.021Z,45.35
2022-12-08T18:52:49.770Z,39.83
2022-12-08T18:55:16.255Z,43.45
2022-12-08T18:57:43.222Z,38.03
2022-12-08T19:00:13.456Z,36.75
2022-12-08T19:02:40.627Z,36.70
2022-12-08T19:05:09.291Z,39.00
2022-12-08T19:07:35.967Z,39.15
2022-12-08T19:10:02.830Z,39.03
2022-12-08T19:12:29.365Z,36.33
2022-12-08T19:14:56.615Z,33.83
2022-12-08T19:17:23.430Z,38.83
2022-12-08T19:19:49.941Z,36.45
2022-12-08T19:22:16.413Z,37.58
2022-12-08T19:24:42.946Z,36.70
2022-12-08T19:27:09.755Z,33.30
2022-12-08T19:29:36.366Z,36.28
2022-12-08T19:32:05.094Z,34.97
2022-12-08T19:34:31.648Z,41.60
2022-12-08T19:36:58.131Z,42.95
2022-12-08T19:39:43.045Z,42.55
2022-12-08T19:42:33.197Z,40.42
2022-12-08T19:45:07.521Z,41.13
2022-12-08T19:47:34.233Z,34.20
2022-12-08T19:50:19.453Z,41.72
2022-12-08T19:52:46.019Z,42.13
2022-12-08T19:55:13.373Z,39.25
2022-12-08T19:57:40.223Z,46.45
2022-12-08T20:00:08.969Z,49.00
2022-12-08T20:02:36.572Z,47.08
2022-12-08T20:05:05.585Z,45.90
2022-12-08T20:07:32.063Z,55.72
2022-12-08T20:09:58.557Z,47.17
2022-12-08T20:12:25.141Z,48.47
2022-12-08T20:14:52.703Z,44.38
2022-12-08T20:17:19.423Z,41.47
2022-12-08T20:19:46.109Z,50.72
2022-12-08T20:22:12.551Z,53.55
2022-12-08T20:24:39.063Z,50.92
2022-12-08T20:27:05.523Z,49.95
2022-12-08T20:29:32.140Z,44.65
2022-12-08T20:31:58.821Z,42.65
2022-12-08T20:34:25.540Z,46.70
2022-12-08T20:36:52.014Z,44.58
2022-12-08T20:39:18.736Z,45.35
2022-12-08T20:41:46.213Z,40.88
2022-12-08T20:44:12.735Z,40.22
2022-12-08T20:46:39.674Z,35.72
2022-12-08T20:49:07.706Z,34.22
2022-12-08T20:51:34.676Z,33.50
2022-12-08T20:54:01.534Z,29.88
2022-12-08T20:56:28.540Z,42.35
2022-12-08T20:58:56.019Z,34.40
2022-12-08T21:01:24.335Z,34.58
2022-12-08T21:03:51.642Z,27.88
2022-12-08T21:06:23.342Z,33.30
2022-12-08T21:08:50.754Z,33.08
2022-12-08T21:11:17.567Z,27.55
2022-12-08T21:13:44.601Z,32.30
2022-12-08T21:16:13.785Z,35.10
2022-12-08T21:18:41.589Z,32.25
2022-12-08T21:21:11.615Z,35.67
2022-12-08T21:23:38.407Z,31.02
2022-12-08T21:26:18.702Z,33.70
2022-12-08T21:28:45.620Z,33.13
2022-12-08T21:31:15.082Z,33.10
2022-12-08T21:33:42.168Z,41.40
2022-12-08T21:36:12.847Z,35.70
2022-12-08T21:38:40.848Z,37.22
2022-12-08T21:41:10.665Z,35.38
2022-12-08T21:43:37.284Z,36.50
2022-12-08T21:46:04.371Z,35.63
2022-12-08T21:48:30.878Z,39.03
2022-12-08T21:51:04.719Z,36.33
2022-12-08T21:53:31.395Z,34.88
2022-12-08T21:55:57.839Z,35.88
2022-12-08T21:58:24.464Z,38.20
2022-12-08T22:00:51.095Z,35.42
2022-12-08T22:03:17.889Z,37.70
2022-12-08T22:05:44.463Z,33.38
2022-12-08T22:08:11.129Z,31.67
2022-12-08T22:10:38.382Z,30.63
2022-12-08T22:13:04.970Z,36.90
2022-12-08T22:15:32.724Z,36.60
2022-12-08T22:17:59.334Z,31.45
2022-12-08T22:20:26.011Z,29.27
2022-12-08T22:22:52.699Z,29.77
2022-12-08T22:25:19.307Z,30.58
2022-12-08T22:27:46.012Z,27.27
2022-12-08T22:30:12.929Z,30.40
2022-12-08T22:32:40.128Z,33.35
2022-12-08T22:35:06.943Z,32.22
2022-12-08T22:37:33.700Z,35.63
2022-12-08T22:40:00.259Z,30.42
2022-12-08T22:42:27.669Z,29.10
2022-12-08T22:44:54.159Z,32.17
2022-12-08T22:47:20.727Z,28.30
2022-12-08T22:49:47.360Z,34.25
2022-12-08T22:52:14.082Z,31.05
2022-12-08T22:54:40.604Z,30.90
2022-12-08T22:57:07.035Z,28.58
2022-12-08T22:59:34.641Z,29.73
2022-12-08T23:02:01.234Z,29.55
2022-12-08T23:04:27.851Z,31.45
2022-12-08T23:06:54.720Z,27.58
2022-12-08T23:09:21.658Z,27.70
2022-12-08T23:11:48.453Z,29.33
2022-12-08T23:14:15.621Z,28.75
2022-12-08T23:16:42.175Z,35.53
2022-12-08T23:19:08.731Z,28.08
2022-12-08T23:21:35.188Z,29.02
2022-12-08T23:24:02.104Z,31.75
2022-12-08T23:26:31.663Z,29.45
2022-12-08T23:28:59.090Z,26.95
2022-12-08T23:31:26.738Z,26.95
2022-12-08T23:33:54.679Z,26.30
2022-12-08T23:36:22.609Z,26.10
2022-12-08T23:38:49.229Z,23.08
2022-12-08T23:41:16.161Z,21.70
2022-12-08T23:43:47.512Z,20.45
2022-12-08T23:46:15.747Z,19.48
2022-12-08T23:48:42.395Z,21.58
2022-12-08T23:51:09.430Z,20.25
2022-12-08T23:53:36.139Z,19.77
2022-12-08T23:56:05.874Z,21.08
2022-12-08T23:58:33.361Z,22.95
